Home   Weather   Unterschwarzenberg   Past weeks
Flag for Austria

Past Weather in Unterschwarzenberg, Upper Austria, Austria — Yesterday and Last 2 Weeks

Currently: 59 °F. Clear. (Weather station: Linz / Hoersching-Flughafen, Austria). See more current weather

Past Weather in Unterschwarzenberg — Graph

°F

Unterschwarzenberg Temperature Yesterday

Maximum temperature yesterday: 63 °F (at 4:20 pm)
Minimum temperature yesterday: 48 °F (at 11:20 pm)
Average temperature yesterday: 56 °F

High & Low Weather Summary for the Past Weeks

 TemperatureHumidityPressure
High75 °F (Apr 5, 4:50 pm)100% (Apr 5, 12:20 am)30.33 "Hg (Apr 5, 12:20 am)
Low34 °F (Apr 10, 9:50 am)23% (Apr 8, 5:50 pm)29.77 "Hg (Apr 13, 12:20 pm)
Average50 °F67%30.11 "Hg
* Reported Apr 2 8:20 pm — Apr 17 8:20 pm, Unterschwarzenberg. Weather by CustomWeather, © 2026

Note: Actual official high and low records may vary slightly from our data, if they occured in-between our weather recording intervals... More about our weather records

Unterschwarzenberg Weather History for the Previous 24 Hours

Scroll right to see more
 ConditionsComfort  
Time TempWeatherWind HumidityBarometerVisibility
8:20 pm
Fri, Apr 17
63 °FClear.2 mph52%30.12 "HgN/A
7:50 pm63 °FPassing clouds.6 mph52%30.12 "HgN/A
7:20 pm66 °FScattered clouds.5 mph46%30.12 "HgN/A
6:50 pm68 °FPassing clouds.3 mph38%30.12 "HgN/A
6:20 pm68 °FClear.3 mph40%30.12 "HgN/A
5:50 pm68 °FPassing clouds.7 mph43%30.12 "HgN/A
5:20 pm68 °FSunny.10 mph40%30.12 "Hg10 mi
4:50 pm66 °FSunny.9 mph46%30.12 "Hg10 mi
4:20 pm66 °FClear.9 mph49%30.12 "HgN/A
3:50 pm68 °FPassing clouds.6 mph40%30.12 "HgN/A
3:20 pm68 °FSunny.3 mph40%30.15 "Hg10 mi
2:50 pm68 °FPassing clouds.3 mph43%30.15 "HgN/A
2:20 pm66 °FClear.5 mph40%30.15 "HgN/A
1:50 pm66 °FClear.3 mph46%30.15 "HgN/A
1:20 pm64 °FClear.3 mph46%30.18 "HgN/A
12:50 pm64 °FClear.2 mph52%30.18 "HgN/A
12:20 pm64 °FClear.2 mph56%30.18 "HgN/A
11:50 am63 °FClear.2 mph59%30.21 "HgN/A
11:20 am61 °FClear.2 mph68%30.21 "HgN/A
10:50 am59 °FClear.3 mph68%30.21 "HgN/A
10:20 am57 °FClear.3 mph72%30.21 "HgN/A
9:50 am54 °FClear.2 mph77%30.21 "HgN/A
9:20 am52 °FClear.2 mph82%30.21 "HgN/A
8:50 am50 °FClear.2 mph82%30.21 "HgN/A
8:20 am48 °FClear.2 mph82%30.21 "HgN/A
7:50 am46 °FClear.2 mph87%30.21 "HgN/A
7:20 am43 °FClear.1 mph100%30.21 "HgN/A
6:50 am43 °FClear.1 mph93%30.21 "HgN/A
6:20 am43 °FClear.2 mph93%30.21 "HgN/A
5:50 am43 °FClear.1 mph93%30.21 "HgN/A
5:20 am45 °FClear.3 mph93%30.21 "HgN/A
4:50 am45 °FPassing clouds.1 mph93%30.21 "HgN/A
4:20 am45 °FPassing clouds.2 mph93%30.21 "HgN/A
3:50 am45 °FPassing clouds.1 mph93%30.21 "HgN/A
3:20 am46 °FClear.3 mph87%30.21 "HgN/A
2:50 am46 °FClear.5 mph87%30.21 "HgN/A
2:20 am48 °FClear.5 mph82%30.21 "HgN/A
1:20 am48 °FClear.7 mph87%30.21 "HgN/A
12:50 am50 °FClear.3 mph82%30.21 "HgN/A
12:20 am50 °FClear.5 mph82%30.21 "HgN/A
11:50 pm
Thu, Apr 16
52 °FClear.7 mph77%30.21 "HgN/A
11:20 pm48 °FClear.3 mph87%30.21 "HgN/A
10:50 pm50 °FPassing clouds.3 mph82%30.21 "HgN/A
10:20 pm50 °FPassing clouds.3 mph82%30.21 "HgN/A
9:50 pm54 °FPassing clouds.2 mph77%30.21 "HgN/A
9:20 pm55 °FPassing clouds.3 mph72%30.21 "HgN/A
Weather by CustomWeather, © 2026

See weather overview